EW4624 Weather Reports


Display with metric or nautical units.
time (UTC)temp
F
wind
direction
speed
MPH
gust
MPH
rain 1hr
in
rain 24hr
in
rain mn
in
humidity
%
barometer
mb
20191215201531 72 141 4.0 9.0 0.00 0.01 0.01 83 1017.4
20191215200022 72 154 2.0 7.0 0.00 0.01 0.01 84 1017.4
20191215194525 72 178 5.0 10.0 0.00 0.01 0.01 84 1017.4
20191215193041 72 159 5.0 11.0 0.00 0.01 0.01 84 1017.6
20191215191521 72 179 6.0 11.0 0.00 0.01 0.01 83 1017.7
20191215190047 72 156 6.0 11.0 0.00 0.01 0.01 84 1017.8
20191215184519 72 203 3.0 11.0 0.00 0.01 0.01 84 1017.9
20191215183015 72 162 2.0 9.0 0.00 0.01 0.01 84 1018.1
20191215181514 72 158 1.0 6.0 0.00 0.01 0.01 85 1018.2
20191215180015 69 129 0.0 1.0 0.00 0.01 0.01 87 1018.5
20191215174505 70 87 0.0 2.0 0.00 0.01 0.01 86 1018.7
20191215173002 69 113 0.0 2.0 0.00 0.01 0.01 87 1019.1
20191215171711 69 72 0.0 3.0 0.00 0.01 0.01 87 1019.2
20191215170354 68 92 0.0 1.0 0.01 0.01 0.01 87 1019.3
20191215164710 67 118 0.0 1.0 0.01 0.01 0.01 88 1019.4
20191215163131 66 120 0.0 1.0 0.01 0.01 0.01 90 1019.4
20191215161619 65 128 0.0 1.0 0.01 0.01 0.01 90 1019.4
20191215160155 65 107 0.0 1.0 0.00 0.00 0.00 91 1019.5
20191215154653 64 122 0.0 3.0 0.00 0.00 0.00 92 1019.4
20191215153227 64 127 0.0 2.0 0.00 0.00 0.00 93 1019.3
20191215151758 63 134 0.0 1.0 0.00 0.00 0.00 94 1019.3
20191215150149 62 110 0.0 3.0 0.00 0.00 0.00 95 1019.1
20191215144630 62 105 0.0 2.0 0.00 0.00 0.00 96 1018.9
20191215143042 61 105 0.0 1.0 0.00 0.00 0.00 97 1018.7
20191215141606 60 124 0.0 1.0 0.00 0.00 0.00 98 1018.6
20191215140112 59 83 0.0 1.0 0.00 0.00 0.00 98 1018.3
20191215134547 58 71 0.0 1.0 0.00 0.00 0.00 98 1018.1
20191215133046 57 96 0.0 0.0 0.00 0.00 0.00 98 1018.1
20191215131527 56 108 0.0 0.0 0.00 0.00 0.00 98 1017.9
20191215130059 56 108 0.0 0.0 0.00 0.00 0.00 98 1017.8
20191215124520 56 108 0.0 0.0 0.00 0.00 0.00 98 1017.6
20191215123007 56 108 0.0 1.0 0.00 0.00 0.00 98 1017.3
20191215121505 55 91 0.0 0.0 0.00 0.00 0.00 98 1017.1
20191215120021 55 88 0.0 0.0 0.00 0.00 0.00 98 1017.0
20191215114506 55 91 0.0 0.0 0.00 0.00 0.00 98 1017.0
20191215113217 55 111 0.0 1.0 0.00 0.00 0.00 98 1017.0
20191215111733 55 117 0.0 0.0 0.00 0.00 0.00 98 1016.8
20191215110302 55 129 0.0 1.0 0.00 0.00 0.00 99 1016.8
20191215104748 54 143 0.0 0.0 0.00 0.00 0.00 99 1016.7
20191215103125 54 79 0.0 0.0 0.00 0.00 0.00 99 1016.6
20191215101641 54 79 0.0 0.0 0.00 0.00 0.00 99 1016.6
20191215100233 54 79 0.0 0.0 0.00 0.00 0.00 99 1016.4
20191215094709 54 79 0.0 0.0 0.00 0.00 0.00 99 1016.5
20191215093209 54 78 0.0 0.0 0.00 0.00 0.00 99 1016.6
20191215091642 53 98 0.0 0.0 0.00 0.00 0.00 99 1016.7
20191215090133 53 302 0.0 0.0 0.00 0.00 0.00 99 1016.5
20191215084642 52 296 0.0 0.0 0.00 0.00 0.00 99 1016.4
20191215083156 52 292 0.0 0.0 0.00 0.00 0.00 99 1016.1
20191215081641 52 292 0.0 0.0 0.00 0.00 0.00 99 1016.0
20191215080207 52 292 0.0 0.0 0.00 0.00 0.00 98 1015.9
20191215074654 52 292 0.0 0.0 0.00 0.00 0.00 98 1015.7
20191215073307 53 292 0.0 0.0 0.00 0.00 0.00 99 1015.8
20191215071612 53 292 0.0 0.0 0.00 0.00 0.00 99 1015.6
20191215070157 53 288 0.0 0.0 0.00 0.00 0.00 99 1015.5
20191215064607 53 288 0.0 0.0 0.00 0.00 0.00 99 1015.4
20191215063047 53 288 0.0 0.0 0.00 0.00 0.00 99 1015.4
20191215061611 52 288 0.0 0.0 0.00 0.00 0.00 99 1015.4
20191215060043 52 288 0.0 0.0 0.00 0.00 0.00 98 1015.4
20191215054631 52 288 0.0 0.0 0.00 0.00 0.00 99 1015.6
20191215053135 51 288 0.0 0.0 0.00 0.00 0.00 98 1015.7
20191215051607 50 288 0.0 0.0 0.00 0.00 0.00 98 1015.7
20191215050142 50 288 0.0 0.0 0.00 0.00 0.00 98 1015.7
20191215044551 50 288 0.0 0.0 0.00 0.01 0.00 98 1015.7
20191215043134 50 288 0.0 0.0 0.00 0.01 0.00 98 1015.6
20191215041538 50 288 0.0 0.0 0.00 0.01 0.00 98 1015.3
20191215040027 51 288 0.0 0.0 0.00 0.01 0.00 98 1015.1
20191215034538 50 288 0.0 0.0 0.00 0.14 0.00 98 1015.2
20191215033026 50 288 0.0 0.0 0.00 0.14 0.00 98 1015.1
20191215031553 51 288 0.0 0.0 0.00 0.14 0.00 97 1015.1
20191215030059 51 288 0.0 0.0 0.00 0.14 0.00 97 1015.1
20191215024522 51 288 0.0 0.0 0.00 0.18 0.00 97 1015.0
20191215023027 52 288 0.0 0.0 0.00 0.18 0.00 97 1014.8
20191215021554 52 288 0.0 0.0 0.00 0.18 0.00 97 1014.8
20191215020017 52 288 0.0 0.0 0.00 0.18 0.00 96 1014.6
20191215014516 53 288 0.0 0.0 0.00 0.18 0.00 96 1014.5
20191215013040 53 288 0.0 0.0 0.00 0.18 0.00 95 1014.5
20191215011526 54 288 0.0 0.0 0.00 0.18 0.00 96 1014.3
20191215010024 54 288 0.0 0.0 0.00 0.18 0.00 95 1014.4
20191215004517 54 288 0.0 0.0 0.00 0.20 0.00 94 1014.2
20191215003040 55 288 0.0 0.0 0.00 0.20 0.00 93 1014.2
20191215001512 55 297 0.0 1.0 0.00 0.20 0.00 93 1014.1
20191215000003 56 259 0.0 0.0 0.00 0.20 0.00 91 1013.9
20191214234505 57 285 0.0 1.0 0.00 0.20 0.00 90 1013.8
20191214233010 58 319 0.0 2.0 0.00 0.20 0.00 88 1013.8
20191214231653 59 317 0.0 3.0 0.00 0.20 0.00 87 1013.9
20191214230203 59 345 0.0 2.0 0.00 0.20 0.00 84 1013.7
20191214224848 59 284 1.0 5.0 0.00 0.28 0.00 86 1013.7
20191214223221 60 295 1.0 5.0 0.00 0.28 0.00 88 1013.5
20191214221817 61 253 1.0 5.0 0.00 0.28 0.00 86 1013.2
20191214220431 61 280 1.0 7.0 0.00 0.28 0.00 83 1013.1
20191214214704 62 276 2.0 8.0 0.00 0.28 0.00 81 1012.8
20191214213325 62 338 2.0 7.0 0.00 0.28 0.00 80 1012.7
20191214211727 62 243 1.0 5.0 0.00 0.28 0.00 80 1012.5
20191214210154 62 300 1.0 6.0 0.00 0.28 0.00 81 1012.4
20191214204629 62 217 2.0 6.0 0.00 0.28 0.00 80 1012.5
20191214203211 62 212 0.0 4.0 0.00 0.28 0.00 81 1012.5
20191214201802 61 224 2.0 6.0 0.00 0.28 0.00 81 1012.2